Time;durP1;ratioP1;P1;durP2;ratioP2;P2;SDS_P1;SDS_P2;PMS_P1;PMS_P2;Temp;Humidity;BMP_temperature;BMP_pressure;BME280_temperature;BME280_humidity;BME280_pressure;Samples;Min_cycle;Max_cycle;Signal;HPM_P1;HPM_P2
2023/05/29 00:00:37;;;;;;;6.75;5.65;;;;;;;;;;5061690;28;20197;-68
2023/05/29 00:03:04;;;;;;;10.35;5.93;;;;;;;;;;5061664;28;20239;-68
2023/05/29 00:05:31;;;;;;;8.75;6.20;;;;;;;;;;5061456;28;20225;-68
2023/05/29 00:07:57;;;;;;;7.70;5.68;;;;;;;;;;5061371;28;20243;-68
2023/05/29 00:10:23;;;;;;;6.50;5.65;;;;;;;;;;5064300;28;20267;-68
2023/05/29 00:12:50;;;;;;;7.80;5.65;;;;;;;;;;5065283;28;20217;-68
2023/05/29 00:15:18;;;;;;;8.77;5.55;;;;;;;;;;5065372;28;20204;-68
2023/05/29 00:17:44;;;;;;;6.28;5.68;;;;;;;;;;5065292;28;20205;-68
2023/05/29 00:20:12;;;;;;;8.10;5.75;;;;;;;;;;5065200;28;20226;-68
2023/05/29 00:22:38;;;;;;;9.07;5.95;;;;;;;;;;5064995;28;20209;-68
2023/05/29 00:25:05;;;;;;;6.28;5.50;;;;;;;;;;5064830;28;20197;-68
2023/05/29 00:27:32;;;;;;;10.77;6.45;;;;;;;;;;5065045;28;20217;-68
2023/05/29 00:29:58;;;;;;;9.23;6.63;;;;;;;;;;5065072;28;20212;-68
2023/05/29 00:32:27;;;;;;;9.30;6.22;;;;;;;;;;5064873;28;20221;-68
2023/05/29 00:34:53;;;;;;;8.40;6.57;;;;;;;;;;5064627;28;20258;-68
2023/05/29 00:37:21;;;;;;;8.88;6.30;;;;;;;;;;5064598;28;20415;-68
2023/05/29 00:39:47;;;;;;;8.45;6.10;;;;;;;;;;5064874;28;20197;-68
2023/05/29 00:42:13;;;;;;;7.30;5.80;;;;;;;;;;5064696;28;20209;-68
2023/05/29 00:44:40;;;;;;;6.93;6.07;;;;;;;;;;5064853;28;20197;-68
2023/05/29 00:47:06;;;;;;;7.82;5.72;;;;;;;;;;5064717;28;20197;-68
2023/05/29 00:49:35;;;;;;;8.82;6.20;;;;;;;;;;5064533;28;20248;-68
2023/05/29 00:52:02;;;;;;;8.68;6.32;;;;;;;;;;5064330;28;20217;-68
2023/05/29 00:54:29;;;;;;;8.38;5.60;;;;;;;;;;5064455;28;20235;-68
2023/05/29 00:56:56;;;;;;;6.78;6.00;;;;;;;;;;5064601;28;20392;-68
2023/05/29 00:59:23;;;;;;;9.88;6.13;;;;;;;;;;5064263;28;20223;-68
2023/05/29 01:01:50;;;;;;;8.55;6.32;;;;;;;;;;5064562;28;20224;-68
2023/05/29 01:04:17;;;;;;;10.00;5.88;;;;;;;;;;5064058;28;20205;-68
2023/05/29 01:06:45;;;;;;;11.20;7.07;;;;;;;;;;5064042;28;20205;-68
2023/05/29 01:09:11;;;;;;;8.70;6.63;;;;;;;;;;5064212;28;20201;-68
2023/05/29 01:11:42;;;;;;;11.15;6.63;;;;;;;;;;5064225;28;20497;-68
2023/05/29 01:14:10;;;;;;;8.85;6.15;;;;;;;;;;5063912;28;20201;-68
2023/05/29 01:16:39;;;;;;;11.93;6.15;;;;;;;;;;5064084;28;20402;-68
2023/05/29 01:19:12;;;;;;;10.13;6.75;;;;;;;;;;5063774;28;20404;-68
2023/05/29 01:21:43;;;;;;;7.63;6.28;;;;;;;;;;5063916;28;20228;-68
2023/05/29 01:24:15;;;;;;;12.02;6.30;;;;;;;;;;5063867;28;20243;-68
2023/05/29 01:26:51;;;;;;;13.15;6.43;;;;;;;;;;5064122;28;20197;-68
2023/05/29 01:29:19;;;;;;;11.20;6.18;;;;;;;;;;5064243;28;20268;-68
2023/05/29 01:31:46;;;;;;;7.60;6.22;;;;;;;;;;5063859;28;20232;-68
2023/05/29 01:34:12;;;;;;;8.32;6.50;;;;;;;;;;5063063;28;20204;-68
2023/05/29 01:36:39;;;;;;;10.63;6.30;;;;;;;;;;5063758;28;20457;-68
2023/05/29 01:39:06;;;;;;;9.07;6.75;;;;;;;;;;5063918;28;20370;-68
2023/05/29 01:41:33;;;;;;;8.80;6.13;;;;;;;;;;5063448;28;20192;-68
2023/05/29 01:44:03;;;;;;;8.15;6.40;;;;;;;;;;5063254;28;20266;-68
2023/05/29 01:46:29;;;;;;;8.45;6.53;;;;;;;;;;5063426;28;20197;-68
2023/05/29 01:48:56;;;;;;;10.63;7.07;;;;;;;;;;5063409;28;20197;-68
2023/05/29 01:51:22;;;;;;;9.45;7.35;;;;;;;;;;5063337;28;20197;-68
2023/05/29 01:53:48;;;;;;;11.60;8.25;;;;;;;;;;5062998;28;20223;-68
2023/05/29 01:56:15;;;;;;;13.50;9.35;;;;;;;;;;5063513;28;20201;-68
2023/05/29 01:58:42;;;;;;;11.68;8.05;;;;;;;;;;5063348;28;20201;-68
2023/05/29 02:01:10;;;;;;;11.35;7.88;;;;;;;;;;5063331;28;20658;-68
2023/05/29 02:03:37;;;;;;;12.20;7.57;;;;;;;;;;5062924;28;20208;-68
2023/05/29 02:06:03;;;;;;;10.27;7.38;;;;;;;;;;5063110;28;20200;-68
2023/05/29 02:08:29;;;;;;;10.68;7.32;;;;;;;;;;5062838;28;20201;-68
2023/05/29 02:10:56;;;;;;;11.07;7.40;;;;;;;;;;5063203;28;20197;-68
2023/05/29 02:13:22;;;;;;;10.00;6.97;;;;;;;;;;5062742;28;20216;-67
2023/05/29 02:15:48;;;;;;;12.05;7.93;;;;;;;;;;5063116;28;20535;-67
2023/05/29 02:18:17;;;;;;;9.43;7.03;;;;;;;;;;5062864;28;20243;-67
2023/05/29 02:20:43;;;;;;;8.75;6.80;;;;;;;;;;5062814;28;20204;-67
2023/05/29 02:23:09;;;;;;;8.85;7.15;;;;;;;;;;5062439;28;20451;-67
2023/05/29 02:25:36;;;;;;;7.85;6.40;;;;;;;;;;5062565;28;20201;-67
2023/05/29 02:28:03;;;;;;;6.93;5.88;;;;;;;;;;5062469;28;20221;-67
2023/05/29 02:30:29;;;;;;;9.75;5.75;;;;;;;;;;5062918;28;20239;-67
2023/05/29 02:32:55;;;;;;;8.35;6.38;;;;;;;;;;5061846;28;20504;-67
2023/05/29 02:35:23;;;;;;;9.23;6.22;;;;;;;;;;5062391;28;20243;-67
2023/05/29 02:37:50;;;;;;;10.75;6.68;;;;;;;;;;5062658;28;20266;-67
2023/05/29 02:40:16;;;;;;;9.27;6.55;;;;;;;;;;5062645;28;20543;-67
2023/05/29 02:42:42;;;;;;;7.15;6.50;;;;;;;;;;5062501;28;20194;-67
2023/05/29 02:45:09;;;;;;;12.43;6.53;;;;;;;;;;5062239;28;20201;-68
2023/05/29 02:47:35;;;;;;;6.75;5.82;;;;;;;;;;5062408;28;20229;-68
2023/05/29 02:50:02;;;;;;;10.57;6.97;;;;;;;;;;5062244;28;20209;-68
2023/05/29 02:52:30;;;;;;;9.65;6.72;;;;;;;;;;5062329;28;20412;-68
2023/05/29 02:54:56;;;;;;;6.13;5.35;;;;;;;;;;5062159;28;20197;-68
2023/05/29 02:57:23;;;;;;;7.20;5.75;;;;;;;;;;5062570;28;20235;-68
2023/05/29 02:59:49;;;;;;;7.18;5.55;;;;;;;;;;5062420;28;20197;-68
2023/05/29 03:02:16;;;;;;;8.68;5.70;;;;;;;;;;5062001;28;20495;-68
2023/05/29 03:04:42;;;;;;;7.57;5.07;;;;;;;;;;5061799;28;20197;-68
2023/05/29 03:07:09;;;;;;;6.72;5.13;;;;;;;;;;5062273;28;20200;-68
2023/05/29 03:09:37;;;;;;;8.85;5.80;;;;;;;;;;5062135;28;20204;-68
2023/05/29 03:12:03;;;;;;;8.68;6.03;;;;;;;;;;5062325;28;20415;-68
2023/05/29 03:14:30;;;;;;;6.38;5.20;;;;;;;;;;5061761;28;20219;-68
2023/05/29 03:16:56;;;;;;;11.10;5.90;;;;;;;;;;5061971;28;20497;-68
2023/05/29 03:19:22;;;;;;;7.22;5.30;;;;;;;;;;5061773;28;20219;-68
2023/05/29 03:21:48;;;;;;;6.45;5.20;;;;;;;;;;5062061;28;20224;-68
2023/05/29 03:24:15;;;;;;;5.95;5.28;;;;;;;;;;5061798;28;20193;-68
2023/05/29 03:26:42;;;;;;;7.43;5.72;;;;;;;;;;5061998;28;20196;-68
2023/05/29 03:29:08;;;;;;;9.93;5.47;;;;;;;;;;5061831;28;20229;-68
2023/05/29 03:31:35;;;;;;;7.00;5.32;;;;;;;;;;5061665;28;20220;-68
2023/05/29 03:34:01;;;;;;;7.60;5.47;;;;;;;;;;5061615;28;20262;-68
2023/05/29 03:36:28;;;;;;;5.53;5.03;;;;;;;;;;5061973;28;20431;-68
2023/05/29 03:38:54;;;;;;;5.85;5.15;;;;;;;;;;5061940;28;20197;-68
2023/05/29 03:41:21;;;;;;;5.70;5.13;;;;;;;;;;5062171;28;20268;-68
2023/05/29 03:43:48;;;;;;;7.90;6.00;;;;;;;;;;5063458;28;20200;-68
2023/05/29 03:46:15;;;;;;;7.82;5.65;;;;;;;;;;5065657;28;20201;-68
2023/05/29 03:48:41;;;;;;;7.05;5.38;;;;;;;;;;5065846;28;20243;-68
2023/05/29 03:51:07;;;;;;;9.88;6.00;;;;;;;;;;5065783;28;20430;-68
2023/05/29 03:53:33;;;;;;;6.22;5.50;;;;;;;;;;5065516;28;20579;-68
2023/05/29 03:56:00;;;;;;;10.85;6.15;;;;;;;;;;5065516;28;20201;-68
2023/05/29 03:58:26;;;;;;;6.65;5.55;;;;;;;;;;5065526;28;20219;-68
2023/05/29 04:00:53;;;;;;;10.32;5.53;;;;;;;;;;5065367;28;20506;-68
2023/05/29 04:03:20;;;;;;;11.05;5.95;;;;;;;;;;5065448;28;20197;-68
2023/05/29 04:05:46;;;;;;;7.60;5.57;;;;;;;;;;5065469;28;20235;-68
2023/05/29 04:08:13;;;;;;;6.80;5.75;;;;;;;;;;5065367;28;20243;-68
2023/05/29 04:10:39;;;;;;;7.30;6.00;;;;;;;;;;5065192;28;20275;-68
2023/05/29 04:13:06;;;;;;;6.00;5.40;;;;;;;;;;5065140;28;20259;-68
2023/05/29 04:15:33;;;;;;;6.68;5.28;;;;;;;;;;5064758;28;20401;-69
2023/05/29 04:18:00;;;;;;;7.10;5.95;;;;;;;;;;5065343;28;20454;-68
2023/05/29 04:20:26;;;;;;;6.85;5.85;;;;;;;;;;5065275;28;20198;-68
2023/05/29 04:22:53;;;;;;;6.38;5.57;;;;;;;;;;5065152;28;20194;-68
2023/05/29 04:25:19;;;;;;;7.60;5.32;;;;;;;;;;5064880;28;20434;-68
2023/05/29 04:27:48;;;;;;;8.93;5.97;;;;;;;;;;5064921;28;20443;-68
2023/05/29 04:30:15;;;;;;;6.82;6.13;;;;;;;;;;5064767;28;20205;-68
2023/05/29 04:32:42;;;;;;;6.18;5.38;;;;;;;;;;5065014;28;20201;-68
2023/05/29 04:35:10;;;;;;;7.97;5.53;;;;;;;;;;5064585;28;20264;-68
2023/05/29 04:37:38;;;;;;;5.90;4.82;;;;;;;;;;5064810;28;20227;-68
2023/05/29 04:40:08;;;;;;;5.97;5.28;;;;;;;;;;5065176;28;20349;-69
2023/05/29 04:42:35;;;;;;;6.03;5.43;;;;;;;;;;5064638;28;20197;-69
2023/05/29 04:45:02;;;;;;;6.28;5.28;;;;;;;;;;5064704;28;20413;-69
2023/05/29 04:47:28;;;;;;;6.63;5.85;;;;;;;;;;5064689;28;20251;-69
2023/05/29 04:49:54;;;;;;;6.57;5.13;;;;;;;;;;5064647;28;20201;-69
2023/05/29 04:52:23;;;;;;;5.85;5.25;;;;;;;;;;5064563;28;20251;-69
2023/05/29 04:54:49;;;;;;;9.02;4.85;;;;;;;;;;5063574;28;20217;-69
2023/05/29 04:57:16;;;;;;;6.68;4.97;;;;;;;;;;5064277;28;20209;-69
2023/05/29 04:59:42;;;;;;;7.45;5.57;;;;;;;;;;5064493;28;20197;-69
2023/05/29 05:02:08;;;;;;;6.13;5.53;;;;;;;;;;5064385;28;20501;-69
2023/05/29 05:04:34;;;;;;;10.55;6.22;;;;;;;;;;5064054;28;20193;-69
2023/05/29 05:07:01;;;;;;;6.25;5.55;;;;;;;;;;5064316;28;20295;-69
2023/05/29 05:09:29;;;;;;;7.07;5.82;;;;;;;;;;5064233;28;20232;-69
2023/05/29 05:11:55;;;;;;;6.60;5.90;;;;;;;;;;5064033;28;20212;-69
2023/05/29 05:14:22;;;;;;;8.55;6.07;;;;;;;;;;5063757;28;20225;-69
2023/05/29 05:16:48;;;;;;;6.85;5.72;;;;;;;;;;5064088;28;20247;-69
2023/05/29 05:19:14;;;;;;;9.57;5.82;;;;;;;;;;5064014;28;20243;-69
2023/05/29 05:21:40;;;;;;;6.60;5.53;;;;;;;;;;5063834;28;20196;-69
2023/05/29 05:24:07;;;;;;;6.82;5.57;;;;;;;;;;5063710;28;20193;-69
2023/05/29 05:26:34;;;;;;;7.60;6.32;;;;;;;;;;5063810;28;20439;-69
2023/05/29 05:29:00;;;;;;;6.50;5.82;;;;;;;;;;5063858;28;20317;-69
2023/05/29 05:31:27;;;;;;;6.15;5.60;;;;;;;;;;5063967;28;20235;-69
2023/05/29 05:33:53;;;;;;;7.32;5.78;;;;;;;;;;5063437;28;20228;-68
2023/05/29 05:36:19;;;;;;;8.18;5.38;;;;;;;;;;5063671;28;20197;-68
2023/05/29 05:38:46;;;;;;;6.28;5.68;;;;;;;;;;5063952;28;20203;-68
2023/05/29 05:41:12;;;;;;;9.70;6.75;;;;;;;;;;5063864;28;20436;-68
2023/05/29 05:43:40;;;;;;;11.45;5.80;;;;;;;;;;5063506;28;20362;-68
2023/05/29 05:46:06;;;;;;;8.95;6.28;;;;;;;;;;5063564;28;20391;-68
2023/05/29 05:48:32;;;;;;;10.55;6.47;;;;;;;;;;5063420;28;20421;-68
2023/05/29 05:50:59;;;;;;;8.15;6.00;;;;;;;;;;5063464;28;20496;-68
2023/05/29 05:53:25;;;;;;;8.50;6.18;;;;;;;;;;5063291;28;20217;-68
2023/05/29 05:55:51;;;;;;;7.85;6.85;;;;;;;;;;5063700;28;20267;-68
2023/05/29 05:58:17;;;;;;;11.40;6.07;;;;;;;;;;5063652;28;20203;-68
2023/05/29 06:00:45;;;;;;;7.63;5.93;;;;;;;;;;5063905;28;20219;-68
2023/05/29 06:03:11;;;;;;;8.20;6.53;;;;;;;;;;5064225;28;20197;-68
2023/05/29 06:05:40;;;;;;;9.55;6.40;;;;;;;;;;5063444;28;20235;-68
2023/05/29 06:08:08;;;;;;;11.50;6.88;;;;;;;;;;5062374;28;20316;-68
2023/05/29 06:10:34;;;;;;;8.60;6.35;;;;;;;;;;5063689;28;20197;-68
2023/05/29 06:13:00;;;;;;;9.55;6.32;;;;;;;;;;5063286;28;20235;-68
2023/05/29 06:15:27;;;;;;;12.15;6.18;;;;;;;;;;5062786;28;20247;-68
2023/05/29 06:17:55;;;;;;;8.77;6.57;;;;;;;;;;5063092;28;20198;-68
2023/05/29 06:20:23;;;;;;;9.43;6.88;;;;;;;;;;5062923;28;20469;-68
2023/05/29 06:22:50;;;;;;;10.77;6.13;;;;;;;;;;5062799;28;20264;-68
2023/05/29 06:25:16;;;;;;;10.05;6.40;;;;;;;;;;5062636;28;20202;-68
2023/05/29 06:27:42;;;;;;;9.50;6.32;;;;;;;;;;5062667;28;20240;-68
2023/05/29 06:30:10;;;;;;;8.73;6.53;;;;;;;;;;5062381;28;20207;-68
2023/05/29 06:32:36;;;;;;;10.32;6.32;;;;;;;;;;5062268;28;20260;-68
2023/05/29 06:35:06;;;;;;;9.57;6.07;;;;;;;;;;5062019;28;20221;-68
2023/05/29 06:37:32;;;;;;;7.88;5.80;;;;;;;;;;5062558;28;20196;-68
2023/05/29 06:39:58;;;;;;;9.23;6.65;;;;;;;;;;5062509;28;20434;-68
2023/05/29 06:42:25;;;;;;;7.80;6.13;;;;;;;;;;5062217;28;20203;-68
2023/05/29 06:44:52;;;;;;;10.25;6.18;;;;;;;;;;5062013;28;20208;-68
2023/05/29 06:47:18;;;;;;;9.43;5.80;;;;;;;;;;5062248;28;20489;-68
2023/05/29 06:49:44;;;;;;;6.18;5.45;;;;;;;;;;5062078;28;20197;-68
2023/05/29 06:52:12;;;;;;;6.35;5.13;;;;;;;;;;5062205;28;20197;-68
2023/05/29 06:54:38;;;;;;;8.60;5.43;;;;;;;;;;5062070;28;20221;-68
2023/05/29 06:57:04;;;;;;;7.60;5.28;;;;;;;;;;5062243;28;20243;-68
2023/05/29 06:59:30;;;;;;;7.72;5.40;;;;;;;;;;5062266;28;20519;-59
2023/05/29 07:01:57;;;;;;;8.23;5.60;;;;;;;;;;5062909;28;20201;-60
2023/05/29 07:04:23;;;;;;;11.43;5.68;;;;;;;;;;5062947;28;20185;-60
2023/05/29 07:06:49;;;;;;;6.28;5.25;;;;;;;;;;5062790;28;20197;-60
2023/05/29 07:09:17;;;;;;;8.73;5.50;;;;;;;;;;5062905;28;20208;-58
2023/05/29 07:11:43;;;;;;;8.40;5.50;;;;;;;;;;5063188;28;20430;-59
2023/05/29 07:14:09;;;;;;;8.27;4.93;;;;;;;;;;5062444;28;20435;-59
2023/05/29 07:16:36;;;;;;;6.88;4.82;;;;;;;;;;5062543;28;20197;-60
2023/05/29 07:19:02;;;;;;;7.80;4.82;;;;;;;;;;5062526;28;20246;-59
2023/05/29 07:21:28;;;;;;;8.05;5.13;;;;;;;;;;5062690;28;20197;-60
2023/05/29 07:23:54;;;;;;;8.07;4.82;;;;;;;;;;5062335;28;20201;-60
2023/05/29 07:26:22;;;;;;;6.78;4.80;;;;;;;;;;5062493;28;20279;-60
2023/05/29 07:28:49;;;;;;;7.95;5.13;;;;;;;;;;5062344;28;20216;-60
2023/05/29 07:31:15;;;;;;;7.32;4.38;;;;;;;;;;5062467;28;20244;-60
2023/05/29 07:33:41;;;;;;;11.77;5.03;;;;;;;;;;5062426;28;20260;-60
2023/05/29 07:36:08;;;;;;;5.68;4.30;;;;;;;;;;5062473;28;20235;-60
2023/05/29 07:38:34;;;;;;;8.52;4.35;;;;;;;;;;5062889;28;20415;-60
2023/05/29 07:41:00;;;;;;;7.13;4.43;;;;;;;;;;5062314;28;20497;-60
2023/05/29 07:43:28;;;;;;;6.25;4.30;;;;;;;;;;5062092;28;20201;-60
2023/05/29 07:45:54;;;;;;;7.13;4.05;;;;;;;;;;5062149;28;20293;-60
2023/05/29 07:48:20;;;;;;;5.85;4.40;;;;;;;;;;5062190;28;20203;-60
2023/05/29 07:50:46;;;;;;;5.25;4.13;;;;;;;;;;5062622;28;20201;-60
2023/05/29 07:53:13;;;;;;;7.25;4.07;;;;;;;;;;5062474;28;20523;-60
2023/05/29 07:55:39;;;;;;;6.90;4.60;;;;;;;;;;5062208;28;20457;-60
2023/05/29 07:58:05;;;;;;;9.23;4.78;;;;;;;;;;5062464;28;20197;-60
2023/05/29 08:00:33;;;;;;;6.65;4.72;;;;;;;;;;5062289;28;20666;-60
2023/05/29 08:02:59;;;;;;;7.45;4.60;;;;;;;;;;5062658;28;20424;-60
2023/05/29 08:05:25;;;;;;;7.15;4.35;;;;;;;;;;5062251;28;20193;-60
2023/05/29 08:07:51;;;;;;;5.72;4.30;;;;;;;;;;5062641;28;20243;-60
2023/05/29 08:10:18;;;;;;;5.00;4.18;;;;;;;;;;5062426;28;20198;-60
2023/05/29 08:12:44;;;;;;;4.53;3.90;;;;;;;;;;5062354;28;20431;-60
2023/05/29 08:15:11;;;;;;;5.15;4.13;;;;;;;;;;5062096;28;20255;-60
2023/05/29 08:17:39;;;;;;;6.85;3.97;;;;;;;;;;5062298;28;20201;-60
2023/05/29 08:20:10;;;;;;;6.82;4.20;;;;;;;;;;5062369;28;20197;-60
2023/05/29 08:22:36;;;;;;;7.28;4.38;;;;;;;;;;5062071;28;20203;-60
2023/05/29 08:25:02;;;;;;;7.55;4.68;;;;;;;;;;5061932;28;20252;-60
2023/05/29 08:27:29;;;;;;;6.20;3.72;;;;;;;;;;5061948;28;20464;-60
2023/05/29 08:29:55;;;;;;;6.30;4.25;;;;;;;;;;5062157;28;20193;-60
2023/05/29 08:32:21;;;;;;;5.45;4.43;;;;;;;;;;5065726;28;20518;-60
2023/05/29 08:34:49;;;;;;;7.07;4.60;;;;;;;;;;5065280;28;20243;-60
2023/05/29 08:37:16;;;;;;;7.30;4.65;;;;;;;;;;5065398;28;20539;-60
2023/05/29 08:39:42;;;;;;;5.15;4.20;;;;;;;;;;5065714;28;20197;-60
2023/05/29 08:42:10;;;;;;;5.03;4.47;;;;;;;;;;5065345;28;20197;-60
2023/05/29 08:44:40;;;;;;;4.75;4.25;;;;;;;;;;5065292;28;20271;-60
2023/05/29 08:47:07;;;;;;;5.78;4.22;;;;;;;;;;5065280;28;20204;-59
2023/05/29 08:49:38;;;;;;;7.50;4.50;;;;;;;;;;5065149;28;20197;-60
2023/05/29 08:52:08;;;;;;;5.32;3.75;;;;;;;;;;5064987;28;20209;-60
2023/05/29 08:54:34;;;;;;;6.85;4.53;;;;;;;;;;5064613;28;20254;-60
2023/05/29 08:57:01;;;;;;;5.85;4.75;;;;;;;;;;5065243;28;20413;-60
2023/05/29 08:59:28;;;;;;;6.20;4.60;;;;;;;;;;5065105;28;20234;-60
2023/05/29 09:01:55;;;;;;;7.25;4.25;;;;;;;;;;5064807;28;20243;-60
2023/05/29 09:04:22;;;;;;;7.05;4.25;;;;;;;;;;5064502;28;20238;-60
2023/05/29 09:06:49;;;;;;;4.82;4.43;;;;;;;;;;5064953;28;20505;-60
2023/05/29 09:09:16;;;;;;;6.47;5.00;;;;;;;;;;5064796;28;20196;-60
2023/05/29 09:11:44;;;;;;;7.30;4.47;;;;;;;;;;5065022;28;20196;-60
2023/05/29 09:14:12;;;;;;;7.85;4.88;;;;;;;;;;5064530;28;20440;-59
2023/05/29 09:16:42;;;;;;;8.80;4.63;;;;;;;;;;5065030;28;20424;-60
2023/05/29 09:19:08;;;;;;;7.82;4.53;;;;;;;;;;5064508;28;20197;-60
2023/05/29 09:21:34;;;;;;;6.22;4.47;;;;;;;;;;5064723;28;20203;-60
2023/05/29 09:24:03;;;;;;;8.40;4.65;;;;;;;;;;5064429;28;20204;-60
2023/05/29 09:26:31;;;;;;;5.97;4.65;;;;;;;;;;5064725;28;20192;-61
2023/05/29 09:28:58;;;;;;;9.90;5.10;;;;;;;;;;5064599;28;20217;-60
2023/05/29 09:31:24;;;;;;;4.97;4.38;;;;;;;;;;5064662;28;20196;-60
2023/05/29 09:33:51;;;;;;;6.05;4.10;;;;;;;;;;5064501;28;20234;-60
2023/05/29 09:36:20;;;;;;;5.85;4.13;;;;;;;;;;5064373;28;20296;-60
2023/05/29 09:38:46;;;;;;;4.90;4.15;;;;;;;;;;5064479;28;20496;-60
2023/05/29 09:41:13;;;;;;;5.22;4.57;;;;;;;;;;5064648;28;20200;-60
2023/05/29 09:43:41;;;;;;;7.47;4.20;;;;;;;;;;5064932;28;20303;-60
2023/05/29 09:46:08;;;;;;;6.50;4.07;;;;;;;;;;5064718;28;20193;-60
2023/05/29 09:48:35;;;;;;;4.72;4.13;;;;;;;;;;5064577;28;20197;-60
2023/05/29 09:51:03;;;;;;;6.63;4.28;;;;;;;;;;5064382;28;20197;-60
2023/05/29 09:53:29;;;;;;;6.93;4.18;;;;;;;;;;5064867;28;20267;-60
2023/05/29 09:55:56;;;;;;;5.95;4.05;;;;;;;;;;5064684;28;20255;-60
2023/05/29 09:58:23;;;;;;;6.22;4.70;;;;;;;;;;5064511;28;20219;-60
2023/05/29 10:00:52;;;;;;;6.95;3.63;;;;;;;;;;5064716;28;20197;-60
2023/05/29 10:03:19;;;;;;;7.47;3.90;;;;;;;;;;5064211;28;20231;-61
2023/05/29 10:05:48;;;;;;;7.82;3.78;;;;;;;;;;5064292;28;20207;-60
2023/05/29 10:08:17;;;;;;;5.22;3.75;;;;;;;;;;5064833;28;20503;-60
2023/05/29 10:10:44;;;;;;;5.85;3.72;;;;;;;;;;5064829;28;20197;-60
2023/05/29 10:13:12;;;;;;;4.15;3.58;;;;;;;;;;5064333;28;20204;-60
2023/05/29 10:15:38;;;;;;;7.70;4.88;;;;;;;;;;5064344;28;20224;-60
2023/05/29 10:18:09;;;;;;;4.40;3.63;;;;;;;;;;5065244;28;20200;-60
2023/05/29 10:20:36;;;;;;;4.82;3.83;;;;;;;;;;5065133;28;20211;-60
2023/05/29 10:23:04;;;;;;;3.67;3.40;;;;;;;;;;5065152;28;20197;-60
2023/05/29 10:25:31;;;;;;;7.22;4.25;;;;;;;;;;5064922;28;20554;-60
2023/05/29 10:27:59;;;;;;;7.03;4.15;;;;;;;;;;5064765;28;20262;-60
2023/05/29 10:30:28;;;;;;;4.03;3.70;;;;;;;;;;5064587;28;20197;-60
2023/05/29 10:33:06;;;;;;;5.85;4.30;;;;;;;;;;5064444;28;20244;-60
2023/05/29 10:35:39;;;;;;;5.45;4.25;;;;;;;;;;5064195;28;20562;-60
2023/05/29 10:38:11;;;;;;;5.15;3.72;;;;;;;;;;5064714;28;20219;-60
2023/05/29 10:40:37;;;;;;;8.90;4.05;;;;;;;;;;5064660;28;20210;-60
2023/05/29 10:43:04;;;;;;;5.65;3.60;;;;;;;;;;5064407;28;20430;-60
2023/05/29 10:45:45;;;;;;;5.15;3.50;;;;;;;;;;5064759;28;20259;-60
2023/05/29 10:48:30;;;;;;;6.80;4.13;;;;;;;;;;5063289;28;20200;-60
2023/05/29 10:50:58;;;;;;;3.90;3.40;;;;;;;;;;5064753;28;20196;-60
2023/05/29 10:53:25;;;;;;;5.90;3.83;;;;;;;;;;5063830;28;20219;-60
2023/05/29 10:55:52;;;;;;;5.68;3.60;;;;;;;;;;5064868;28;20228;-60
2023/05/29 10:58:19;;;;;;;3.78;3.47;;;;;;;;;;5064654;28;20226;-61
2023/05/29 11:00:46;;;;;;;4.40;3.40;;;;;;;;;;5064753;28;20243;-60
2023/05/29 11:03:15;;;;;;;5.57;3.95;;;;;;;;;;5064073;28;20204;-62
2023/05/29 11:08:45;;;;;;;5.97;3.58;;;;;;;;;;5122039;27;20568;-61
2023/05/29 11:11:12;;;;;;;4.18;3.38;;;;;;;;;;5115035;28;20209;-62
2023/05/29 11:13:40;;;;;;;6.78;3.30;;;;;;;;;;5121691;28;20407;-61
2023/05/29 11:16:20;;;;;;;6.75;3.25;;;;;;;;;;5121865;28;20195;-61
2023/05/29 11:18:46;;;;;;;4.65;3.30;;;;;;;;;;5121907;28;20202;-61
2023/05/29 11:21:31;;;;;;;3.80;2.97;;;;;;;;;;5121994;28;20369;-61
2023/05/29 11:24:02;;;;;;;6.78;3.25;;;;;;;;;;5121597;28;20224;-61
2023/05/29 11:26:29;;;;;;;4.43;3.33;;;;;;;;;;5121836;28;20199;-61
2023/05/29 11:28:57;;;;;;;5.18;3.20;;;;;;;;;;5103400;28;20219;-62
2023/05/29 11:31:24;;;;;;;8.68;3.63;;;;;;;;;;5101528;28;20203;-61
2023/05/29 11:33:51;;;;;;;3.45;3.03;;;;;;;;;;5101068;28;20237;-61
2023/05/29 11:36:18;;;;;;;5.85;3.90;;;;;;;;;;5101295;28;20196;-61
2023/05/29 11:38:44;;;;;;;3.55;3.25;;;;;;;;;;5101250;28;20203;-61
2023/05/29 11:41:12;;;;;;;3.47;3.22;;;;;;;;;;5101145;28;20502;-61
2023/05/29 11:43:38;;;;;;;5.43;2.85;;;;;;;;;;5100358;28;20225;-61
2023/05/29 11:46:14;;;;;;;5.82;3.20;;;;;;;;;;5100942;28;20409;-61
2023/05/29 11:48:45;;;;;;;5.50;3.42;;;;;;;;;;5100344;28;20246;-61
2023/05/29 11:51:12;;;;;;;5.13;2.95;;;;;;;;;;5100634;28;20202;-61
2023/05/29 11:53:40;;;;;;;4.93;3.20;;;;;;;;;;5099999;28;20222;-61
2023/05/29 11:56:07;;;;;;;5.03;2.97;;;;;;;;;;5100373;28;20211;-62
2023/05/29 11:58:35;;;;;;;3.53;3.28;;;;;;;;;;5100298;28;20195;-61
2023/05/29 12:01:01;;;;;;;2.95;2.78;;;;;;;;;;5100019;28;20203;-61
2023/05/29 12:03:27;;;;;;;3.55;3.08;;;;;;;;;;5100226;28;20239;-61
2023/05/29 12:05:55;;;;;;;3.45;3.15;;;;;;;;;;5100546;28;20245;-61
2023/05/29 12:08:22;;;;;;;4.10;3.17;;;;;;;;;;5100295;28;20215;-61
2023/05/29 12:10:49;;;;;;;3.95;3.35;;;;;;;;;;5100142;28;20199;-61
2023/05/29 12:13:16;;;;;;;5.80;4.32;;;;;;;;;;5100136;28;20202;-62
2023/05/29 12:15:44;;;;;;;2.97;2.70;;;;;;;;;;5099890;28;20376;-61
2023/05/29 12:18:11;;;;;;;3.55;3.08;;;;;;;;;;5096545;28;20216;-62
2023/05/29 12:20:37;;;;;;;3.53;3.00;;;;;;;;;;5086375;28;20235;-62
2023/05/29 12:23:03;;;;;;;3.30;3.10;;;;;;;;;;5086132;28;20204;-62
2023/05/29 12:25:30;;;;;;;4.78;3.13;;;;;;;;;;5085928;28;20204;-62
2023/05/29 12:27:57;;;;;;;2.97;2.80;;;;;;;;;;5085788;28;20224;-61
2023/05/29 12:30:24;;;;;;;4.45;3.17;;;;;;;;;;5086305;28;20200;-61
2023/05/29 12:32:52;;;;;;;3.88;2.95;;;;;;;;;;5085987;28;20212;-62
2023/05/29 12:35:19;;;;;;;5.45;2.92;;;;;;;;;;5085721;28;20433;-62
2023/05/29 12:37:46;;;;;;;5.68;3.03;;;;;;;;;;5085937;28;20530;-62
2023/05/29 12:40:16;;;;;;;3.10;2.90;;;;;;;;;;5085195;28;20200;-62
2023/05/29 12:42:42;;;;;;;3.50;3.20;;;;;;;;;;5085337;28;20227;-59
2023/05/29 12:45:09;;;;;;;3.75;3.33;;;;;;;;;;5085463;28;20234;-60
2023/05/29 12:47:35;;;;;;;3.85;2.92;;;;;;;;;;5085465;28;20298;-59
2023/05/29 12:50:16;;;;;;;3.58;3.28;;;;;;;;;;5085434;28;20204;-59
2023/05/29 12:52:42;;;;;;;7.85;3.50;;;;;;;;;;5085743;28;20207;-59
2023/05/29 12:55:08;;;;;;;7.65;3.47;;;;;;;;;;5085124;28;20200;-60
2023/05/29 12:57:35;;;;;;;4.22;2.90;;;;;;;;;;5085164;28;20196;-59
2023/05/29 13:00:01;;;;;;;3.25;2.97;;;;;;;;;;5084799;28;20206;-62
2023/05/29 13:02:29;;;;;;;4.53;3.05;;;;;;;;;;5084603;28;20266;-59
2023/05/29 13:04:55;;;;;;;5.22;4.28;;;;;;;;;;5084647;28;20476;-59
2023/05/29 13:07:23;;;;;;;4.20;3.70;;;;;;;;;;5084347;28;20216;-59
2023/05/29 13:09:49;;;;;;;3.55;3.03;;;;;;;;;;5084575;28;20453;-59
2023/05/29 13:12:15;;;;;;;4.18;3.70;;;;;;;;;;5084489;28;20395;-60
2023/05/29 13:14:42;;;;;;;3.78;3.47;;;;;;;;;;5084538;28;20222;-60
2023/05/29 13:17:08;;;;;;;3.95;3.00;;;;;;;;;;5084305;28;20230;-59
2023/05/29 13:19:34;;;;;;;4.95;3.45;;;;;;;;;;5084682;28;20541;-60
2023/05/29 13:22:00;;;;;;;3.25;3.05;;;;;;;;;;5084296;28;20203;-59
2023/05/29 13:24:28;;;;;;;4.60;3.40;;;;;;;;;;5084335;28;20200;-60
2023/05/29 13:26:54;;;;;;;4.22;3.97;;;;;;;;;;5084445;28;20418;-59
2023/05/29 13:29:20;;;;;;;3.50;3.20;;;;;;;;;;5084493;28;20259;-59
2023/05/29 13:31:46;;;;;;;4.18;3.10;;;;;;;;;;5083563;28;20495;-59
2023/05/29 13:34:13;;;;;;;4.72;3.42;;;;;;;;;;5084026;28;20218;-60
2023/05/29 13:36:39;;;;;;;3.50;3.30;;;;;;;;;;5084285;28;20496;-60
2023/05/29 13:39:06;;;;;;;3.20;2.97;;;;;;;;;;5083931;28;20499;-60
2023/05/29 13:41:34;;;;;;;5.03;3.17;;;;;;;;;;5084064;28;20200;-61
2023/05/29 13:44:01;;;;;;;3.55;3.25;;;;;;;;;;5083522;28;20223;-60
2023/05/29 13:46:27;;;;;;;4.68;3.00;;;;;;;;;;5083816;28;20394;-60
2023/05/29 13:48:53;;;;;;;3.40;3.10;;;;;;;;;;5083450;28;20250;-60
2023/05/29 13:51:20;;;;;;;3.13;2.70;;;;;;;;;;5083258;28;20196;-60
2023/05/29 13:53:46;;;;;;;3.35;3.05;;;;;;;;;;5083076;28;20204;-60
2023/05/29 13:56:12;;;;;;;4.53;3.22;;;;;;;;;;5083932;28;20712;-60
2023/05/29 13:58:40;;;;;;;3.67;3.00;;;;;;;;;;5083083;28;20196;-60
2023/05/29 14:01:06;;;;;;;3.63;3.22;;;;;;;;;;5083436;28;20246;-60
2023/05/29 14:03:32;;;;;;;3.30;3.10;;;;;;;;;;5083847;28;20468;-60
2023/05/29 14:05:58;;;;;;;5.28;3.05;;;;;;;;;;5083172;28;20254;-60
2023/05/29 14:08:25;;;;;;;5.32;3.47;;;;;;;;;;5082803;28;20223;-60
2023/05/29 14:10:51;;;;;;;6.18;3.30;;;;;;;;;;5083001;28;20200;-60
2023/05/29 14:13:17;;;;;;;5.05;3.38;;;;;;;;;;5082667;28;20246;-60
2023/05/29 14:15:45;;;;;;;3.63;3.33;;;;;;;;;;5083065;28;20230;-60
2023/05/29 14:18:11;;;;;;;3.70;3.40;;;;;;;;;;5083300;28;20192;-60
2023/05/29 14:20:37;;;;;;;3.80;3.45;;;;;;;;;;5083230;28;20515;-59
2023/05/29 14:23:04;;;;;;;3.85;3.53;;;;;;;;;;5083139;28;20459;-60
2023/05/29 14:25:30;;;;;;;4.97;3.38;;;;;;;;;;5082383;28;20200;-60
2023/05/29 14:27:56;;;;;;;3.72;3.30;;;;;;;;;;5082405;28;20223;-60
2023/05/29 14:30:22;;;;;;;3.40;3.20;;;;;;;;;;5082395;28;20269;-60
2023/05/29 14:32:50;;;;;;;37.97;18.90;;;;;;;;;;5082419;28;20245;-60
2023/05/29 14:35:16;;;;;;;6.43;4.45;;;;;;;;;;5082022;28;20234;-60
2023/05/29 14:37:43;;;;;;;5.10;3.72;;;;;;;;;;5082663;28;20218;-60
2023/05/29 14:40:09;;;;;;;3.60;3.30;;;;;;;;;;5082396;28;20421;-60
2023/05/29 14:42:36;;;;;;;5.03;3.88;;;;;;;;;;5082046;28;20207;-60